sensor_id;sensor_type;location;lat;lon;timestamp;temperature;humidity
65235;DHT22;51820;48.374;10.930;2022-08-01T00:00:08;22.80;48.30
65235;DHT22;51820;48.374;10.930;2022-08-01T00:02:37;23.70;39.30
65235;DHT22;51820;48.374;10.930;2022-08-01T00:05:07;23.70;48.80
65235;DHT22;51820;48.374;10.930;2022-08-01T00:07:35;27.10;51.90
65235;DHT22;51820;48.374;10.930;2022-08-01T00:10:07;21.80;48.50
65235;DHT22;51820;48.374;10.930;2022-08-01T00:12:35;22.20;48.50
65235;DHT22;51820;48.374;10.930;2022-08-01T00:15:04;22.00;48.70
65235;DHT22;51820;48.374;10.930;2022-08-01T00:17:33;23.60;38.70
65235;DHT22;51820;48.374;10.930;2022-08-01T00:20:03;23.70;38.80
65235;DHT22;51820;48.374;10.930;2022-08-01T00:22:33;22.40;48.90
65235;DHT22;51820;48.374;10.930;2022-08-01T00:25:05;25.50;53.90
65235;DHT22;51820;48.374;10.930;2022-08-01T00:27:36;23.50;38.90
65235;DHT22;51820;48.374;10.930;2022-08-01T00:30:05;23.20;49.30
65235;DHT22;51820;48.374;10.930;2022-08-01T00:32:41;21.90;48.50
65235;DHT22;51820;48.374;10.930;2022-08-01T00:35:09;21.70;49.00
65235;DHT22;51820;48.374;10.930;2022-08-01T00:40:08;23.20;49.10
65235;DHT22;51820;48.374;10.930;2022-08-01T00:45:10;24.60;53.30
65235;DHT22;51820;48.374;10.930;2022-08-01T00:47:38;21.50;48.50
65235;DHT22;51820;48.374;10.930;2022-08-01T00:50:08;23.40;38.80
65235;DHT22;51820;48.374;10.930;2022-08-01T00:52:36;21.60;48.80
65235;DHT22;51820;48.374;10.930;2022-08-01T00:55:09;27.00;51.60
65235;DHT22;51820;48.374;10.930;2022-08-01T00:57:41;22.60;48.90
65235;DHT22;51820;48.374;10.930;2022-08-01T01:00:29;22.10;48.90
65235;DHT22;51820;48.374;10.930;2022-08-01T01:03:18;21.70;48.40
65235;DHT22;51820;48.374;10.930;2022-08-01T01:06:05;22.30;49.30
65235;DHT22;51820;48.374;10.930;2022-08-01T01:08:39;21.50;49.10
65235;DHT22;51820;48.374;10.930;2022-08-01T01:11:13;22.10;48.60
65235;DHT22;51820;48.374;10.930;2022-08-01T01:13:52;23.20;38.90
65235;DHT22;51820;48.374;10.930;2022-08-01T01:16:22;21.80;48.60
65235;DHT22;51820;48.374;10.930;2022-08-01T01:18:54;21.20;49.00
65235;DHT22;51820;48.374;10.930;2022-08-01T01:21:47;23.10;39.90
65235;DHT22;51820;48.374;10.930;2022-08-01T01:24:31;23.10;38.80
65235;DHT22;51820;48.374;10.930;2022-08-01T01:27:17;22.00;48.90
65235;DHT22;51820;48.374;10.930;2022-08-01T01:29:51;21.60;49.00
65235;DHT22;51820;48.374;10.930;2022-08-01T01:32:31;21.60;49.60
65235;DHT22;51820;48.374;10.930;2022-08-01T01:35:06;23.00;38.90
65235;DHT22;51820;48.374;10.930;2022-08-01T01:37:38;21.20;48.80
65235;DHT22;51820;48.374;10.930;2022-08-01T01:40:10;26.50;53.20
65235;DHT22;51820;48.374;10.930;2022-08-01T01:42:39;22.20;49.00
65235;DHT22;51820;48.374;10.930;2022-08-01T01:45:10;23.00;38.70
65235;DHT22;51820;48.374;10.930;2022-08-01T01:47:40;22.90;38.60
65235;DHT22;51820;48.374;10.930;2022-08-01T01:50:11;21.20;48.80
65235;DHT22;51820;48.374;10.930;2022-08-01T01:52:42;22.40;49.20
65235;DHT22;51820;48.374;10.930;2022-08-01T01:55:12;22.90;39.60
65235;DHT22;51820;48.374;10.930;2022-08-01T01:57:42;22.80;38.70
65235;DHT22;51820;48.374;10.930;2022-08-01T02:00:13;23.10;49.60
65235;DHT22;51820;48.374;10.930;2022-08-01T02:02:42;22.00;49.40
65235;DHT22;51820;48.374;10.930;2022-08-01T02:05:13;22.80;38.70
65235;DHT22;51820;48.374;10.930;2022-08-01T02:07:41;22.80;49.80
65235;DHT22;51820;48.374;10.930;2022-08-01T02:10:11;19.90;51.20
65235;DHT22;51820;48.374;10.930;2022-08-01T02:12:41;20.80;48.90
65235;DHT22;51820;48.374;10.930;2022-08-01T02:15:14;21.20;49.90
65235;DHT22;51820;48.374;10.930;2022-08-01T02:17:45;20.40;49.30
65235;DHT22;51820;48.374;10.930;2022-08-01T02:20:15;20.80;48.90
65235;DHT22;51820;48.374;10.930;2022-08-01T02:22:47;20.70;48.40
65235;DHT22;51820;48.374;10.930;2022-08-01T02:25:21;22.70;38.10
65235;DHT22;51820;48.374;10.930;2022-08-01T02:27:55;22.70;38.20
65235;DHT22;51820;48.374;10.930;2022-08-01T02:30:29;22.60;38.00
65235;DHT22;51820;48.374;10.930;2022-08-01T02:33:02;22.20;48.80
65235;DHT22;51820;48.374;10.930;2022-08-01T02:35:32;22.50;49.70
65235;DHT22;51820;48.374;10.930;2022-08-01T02:38:24;22.70;49.00
65235;DHT22;51820;48.374;10.930;2022-08-01T02:40:55;22.50;38.10
65235;DHT22;51820;48.374;10.930;2022-08-01T02:43:28;22.00;49.20
65235;DHT22;51820;48.374;10.930;2022-08-01T02:46:01;20.80;48.30
65235;DHT22;51820;48.374;10.930;2022-08-01T02:48:34;21.80;48.80
65235;DHT22;51820;48.374;10.930;2022-08-01T02:53:34;22.30;43.20
65235;DHT22;51820;48.374;10.930;2022-08-01T02:56:11;25.10;52.30
65235;DHT22;51820;48.374;10.930;2022-08-01T02:58:42;22.60;49.10
65235;DHT22;51820;48.374;10.930;2022-08-01T03:01:13;21.40;49.20
65235;DHT22;51820;48.374;10.930;2022-08-01T03:06:15;22.40;38.30
65235;DHT22;51820;48.374;10.930;2022-08-01T03:08:45;22.40;38.40
65235;DHT22;51820;48.374;10.930;2022-08-01T03:11:14;22.40;38.50
65235;DHT22;51820;48.374;10.930;2022-08-01T03:13:43;20.80;48.60
65235;DHT22;51820;48.374;10.930;2022-08-01T03:16:15;21.20;49.30
65235;DHT22;51820;48.374;10.930;2022-08-01T03:18:44;22.40;38.60
65235;DHT22;51820;48.374;10.930;2022-08-01T03:21:13;21.30;49.70
65235;DHT22;51820;48.374;10.930;2022-08-01T03:23:42;20.50;49.80
65235;DHT22;51820;48.374;10.930;2022-08-01T03:28:41;20.80;49.80
65235;DHT22;51820;48.374;10.930;2022-08-01T03:31:14;21.30;49.90
65235;DHT22;51820;48.374;10.930;2022-08-01T03:33:42;21.70;50.60
65235;DHT22;51820;48.374;10.930;2022-08-01T03:36:12;20.90;49.80
65235;DHT22;51820;48.374;10.930;2022-08-01T03:38:42;22.30;50.60
65235;DHT22;51820;48.374;10.930;2022-08-01T03:41:15;22.30;51.20
65235;DHT22;51820;48.374;10.930;2022-08-01T03:43:46;22.00;51.10
65235;DHT22;51820;48.374;10.930;2022-08-01T03:46:22;21.60;50.40
65235;DHT22;51820;48.374;10.930;2022-08-01T03:48:55;20.80;49.90
65235;DHT22;51820;48.374;10.930;2022-08-01T03:51:27;21.70;50.60
65235;DHT22;51820;48.374;10.930;2022-08-01T03:53:57;21.20;50.70
65235;DHT22;51820;48.374;10.930;2022-08-01T03:56:27;20.90;53.70
65235;DHT22;51820;48.374;10.930;2022-08-01T03:58:59;22.10;39.60
65235;DHT22;51820;48.374;10.930;2022-08-01T04:01:29;22.10;39.70
65235;DHT22;51820;48.374;10.930;2022-08-01T04:03:59;22.10;40.70
65235;DHT22;51820;48.374;10.930;2022-08-01T04:06:29;22.00;40.00
65235;DHT22;51820;48.374;10.930;2022-08-01T04:08:57;22.00;40.80
65235;DHT22;51820;48.374;10.930;2022-08-01T04:11:27;20.20;50.60
65235;DHT22;51820;48.374;10.930;2022-08-01T04:13:56;21.80;51.70
65235;DHT22;51820;48.374;10.930;2022-08-01T04:16:24;20.50;50.90
65235;DHT22;51820;48.374;10.930;2022-08-01T04:18:54;20.10;51.40
65235;DHT22;51820;48.374;10.930;2022-08-01T04:21:25;19.80;51.20
65235;DHT22;51820;48.374;10.930;2022-08-01T04:23:59;20.10;51.20
65235;DHT22;51820;48.374;10.930;2022-08-01T04:26:29;22.00;52.70
65235;DHT22;51820;48.374;10.930;2022-08-01T04:28:58;20.20;51.60
65235;DHT22;51820;48.374;10.930;2022-08-01T04:31:29;20.70;52.00
65235;DHT22;51820;48.374;10.930;2022-08-01T04:34:01;21.90;40.80
65235;DHT22;51820;48.374;10.930;2022-08-01T04:36:33;22.00;52.50
65235;DHT22;51820;48.374;10.930;2022-08-01T04:39:04;21.90;41.00
65235;DHT22;51820;48.374;10.930;2022-08-01T04:41:34;21.20;52.70
65235;DHT22;51820;48.374;10.930;2022-08-01T04:46:32;25.70;54.90
65235;DHT22;51820;48.374;10.930;2022-08-01T04:49:05;21.80;41.00
65235;DHT22;51820;48.374;10.930;2022-08-01T04:51:34;20.30;51.90
65235;DHT22;51820;48.374;10.930;2022-08-01T04:54:02;20.00;52.20
65235;DHT22;51820;48.374;10.930;2022-08-01T04:56:31;20.70;52.00
65235;DHT22;51820;48.374;10.930;2022-08-01T04:59:00;19.90;52.10
65235;DHT22;51820;48.374;10.930;2022-08-01T05:01:49;21.50;52.70
65235;DHT22;51820;48.374;10.930;2022-08-01T05:04:22;21.80;41.00
65235;DHT22;51820;48.374;10.930;2022-08-01T05:06:50;20.70;52.50
65235;DHT22;51820;48.374;10.930;2022-08-01T05:09:18;22.80;55.90
65235;DHT22;51820;48.374;10.930;2022-08-01T05:11:47;20.40;52.00
65235;DHT22;51820;48.374;10.930;2022-08-01T05:16:44;21.90;52.80
65235;DHT22;51820;48.374;10.930;2022-08-01T05:19:12;21.80;52.90
65235;DHT22;51820;48.374;10.930;2022-08-01T05:21:42;21.80;41.20
65235;DHT22;51820;48.374;10.930;2022-08-01T05:24:13;21.80;41.20
65235;DHT22;51820;48.374;10.930;2022-08-01T05:26:42;21.90;42.20
65235;DHT22;51820;48.374;10.930;2022-08-01T05:31:38;20.60;52.10
65235;DHT22;51820;48.374;10.930;2022-08-01T05:34:07;21.50;52.40
65235;DHT22;51820;48.374;10.930;2022-08-01T05:36:42;20.70;52.40
65235;DHT22;51820;48.374;10.930;2022-08-01T05:39:11;21.70;52.30
65235;DHT22;51820;48.374;10.930;2022-08-01T05:41:40;19.90;52.30
65235;DHT22;51820;48.374;10.930;2022-08-01T05:44:09;24.50;56.50
65235;DHT22;51820;48.374;10.930;2022-08-01T05:46:37;20.60;52.40
65235;DHT22;51820;48.374;10.930;2022-08-01T05:49:05;21.00;53.60
65235;DHT22;51820;48.374;10.930;2022-08-01T05:51:33;20.60;52.00
65235;DHT22;51820;48.374;10.930;2022-08-01T05:54:04;20.00;51.80
65235;DHT22;51820;48.374;10.930;2022-08-01T05:56:32;22.00;42.30
65235;DHT22;51820;48.374;10.930;2022-08-01T05:59:01;20.40;51.80
65235;DHT22;51820;48.374;10.930;2022-08-01T06:01:29;21.70;52.80
65235;DHT22;51820;48.374;10.930;2022-08-01T06:04:00;22.00;41.60
65235;DHT22;51820;48.374;10.930;2022-08-01T06:06:38;21.30;53.30
65235;DHT22;51820;48.374;10.930;2022-08-01T06:09:07;21.10;53.20
65235;DHT22;51820;48.374;10.930;2022-08-01T06:11:35;22.10;42.80
65235;DHT22;51820;48.374;10.930;2022-08-01T06:14:03;20.60;52.50
65235;DHT22;51820;48.374;10.930;2022-08-01T06:16:32;26.60;56.80
65235;DHT22;51820;48.374;10.930;2022-08-01T06:19:00;20.30;52.80
65235;DHT22;51820;48.374;10.930;2022-08-01T06:26:26;22.40;55.10
65235;DHT22;51820;48.374;10.930;2022-08-01T06:41:29;23.70;44.20
65235;DHT22;51820;48.374;10.930;2022-08-01T06:56:35;22.30;44.20
65235;DHT22;51820;48.374;10.930;2022-08-01T07:09:06;22.50;44.60
65235;DHT22;51820;48.374;10.930;2022-08-01T07:11:55;22.50;46.00
65235;DHT22;51820;48.374;10.930;2022-08-01T07:24:33;22.60;56.30
65235;DHT22;51820;48.374;10.930;2022-08-01T07:27:03;20.90;57.50
65235;DHT22;51820;48.374;10.930;2022-08-01T07:29:50;22.30;56.10
65235;DHT22;51820;48.374;10.930;2022-08-01T07:32:19;21.90;55.50
65235;DHT22;51820;48.374;10.930;2022-08-01T07:34:47;21.40;55.90
65235;DHT22;51820;48.374;10.930;2022-08-01T07:37:15;26.40;58.10
65235;DHT22;51820;48.374;10.930;2022-08-01T07:40:05;22.40;56.10
65235;DHT22;51820;48.374;10.930;2022-08-01T07:42:34;22.70;44.70
65235;DHT22;51820;48.374;10.930;2022-08-01T07:45:03;22.90;55.90
65235;DHT22;51820;48.374;10.930;2022-08-01T07:50:01;22.80;55.70
65235;DHT22;51820;48.374;10.930;2022-08-01T07:54:58;21.80;56.20
65235;DHT22;51820;48.374;10.930;2022-08-01T07:57:26;21.30;54.80
65235;DHT22;51820;48.374;10.930;2022-08-01T07:59:56;22.70;56.30
65235;DHT22;51820;48.374;10.930;2022-08-01T08:02:24;22.80;46.10
65235;DHT22;51820;48.374;10.930;2022-08-01T08:04:52;24.20;46.60
65235;DHT22;51820;48.374;10.930;2022-08-01T08:07:20;21.10;55.40
65235;DHT22;51820;48.374;10.930;2022-08-01T08:09:49;22.20;55.90
65235;DHT22;51820;48.374;10.930;2022-08-01T08:12:27;21.00;55.40
65235;DHT22;51820;48.374;10.930;2022-08-01T08:15:03;23.00;45.90
65235;DHT22;51820;48.374;10.930;2022-08-01T08:17:34;23.10;45.10
65235;DHT22;51820;48.374;10.930;2022-08-01T08:20:06;23.20;58.40
65235;DHT22;51820;48.374;10.930;2022-08-01T08:22:35;22.90;55.10
65235;DHT22;51820;48.374;10.930;2022-08-01T08:25:06;21.10;54.10
65235;DHT22;51820;48.374;10.930;2022-08-01T08:27:34;22.00;54.40
65235;DHT22;51820;48.374;10.930;2022-08-01T08:30:06;23.40;54.80
65235;DHT22;51820;48.374;10.930;2022-08-01T08:32:35;22.60;49.90
65235;DHT22;51820;48.374;10.930;2022-08-01T08:35:06;23.60;54.50
65235;DHT22;51820;48.374;10.930;2022-08-01T08:37:38;23.80;54.00
65235;DHT22;51820;48.374;10.930;2022-08-01T08:40:13;23.20;53.80
65235;DHT22;51820;48.374;10.930;2022-08-01T08:42:47;23.90;43.40
65235;DHT22;51820;48.374;10.930;2022-08-01T08:45:17;22.80;52.30
65235;DHT22;51820;48.374;10.930;2022-08-01T08:47:58;23.40;50.60
65235;DHT22;51820;48.374;10.930;2022-08-01T08:50:28;27.20;52.40
65235;DHT22;51820;48.374;10.930;2022-08-01T08:52:59;24.40;40.80
65235;DHT22;51820;48.374;10.930;2022-08-01T08:55:32;24.60;40.90
65235;DHT22;51820;48.374;10.930;2022-08-01T08:58:21;25.00;38.90
65235;DHT22;51820;48.374;10.930;2022-08-01T09:00:59;23.00;46.90
65235;DHT22;51820;48.374;10.930;2022-08-01T09:03:32;25.10;39.20
65235;DHT22;51820;48.374;10.930;2022-08-01T09:06:01;24.10;46.40
65235;DHT22;51820;48.374;10.930;2022-08-01T09:08:32;25.60;37.40
65235;DHT22;51820;48.374;10.930;2022-08-01T09:14:24;25.90;36.10
65235;DHT22;51820;48.374;10.930;2022-08-01T09:17:03;25.90;35.70
65235;DHT22;51820;48.374;10.930;2022-08-01T09:19:37;26.00;35.40
65235;DHT22;51820;48.374;10.930;2022-08-01T09:22:13;26.20;35.10
65235;DHT22;51820;48.374;10.930;2022-08-01T09:24:58;26.30;34.30
65235;DHT22;51820;48.374;10.930;2022-08-01T09:30:08;26.50;34.20
65235;DHT22;51820;48.374;10.930;2022-08-01T09:32:53;26.60;34.50
65235;DHT22;51820;48.374;10.930;2022-08-01T09:35:25;26.80;34.20
65235;DHT22;51820;48.374;10.930;2022-08-01T09:38:14;25.80;40.00
65235;DHT22;51820;48.374;10.930;2022-08-01T09:40:49;27.00;40.60
65235;DHT22;51820;48.374;10.930;2022-08-01T09:43:19;27.00;32.70
65235;DHT22;51820;48.374;10.930;2022-08-01T09:48:21;25.20;39.20
65235;DHT22;51820;48.374;10.930;2022-08-01T09:50:56;27.30;31.50
65235;DHT22;51820;48.374;10.930;2022-08-01T09:53:43;25.40;34.10
65235;DHT22;51820;48.374;10.930;2022-08-01T09:56:17;24.60;39.20
65235;DHT22;51820;48.374;10.930;2022-08-01T09:58:50;27.80;31.10
65235;DHT22;51820;48.374;10.930;2022-08-01T10:04:10;27.10;36.80
65235;DHT22;51820;48.374;10.930;2022-08-01T10:06:39;28.20;42.50
65235;DHT22;51820;48.374;10.930;2022-08-01T10:09:10;28.60;29.60
65235;DHT22;51820;48.374;10.930;2022-08-01T10:11:42;28.70;29.00
65235;DHT22;51820;48.374;10.930;2022-08-01T10:14:19;28.80;28.30
65235;DHT22;51820;48.374;10.930;2022-08-01T10:16:51;28.80;28.30
65235;DHT22;51820;48.374;10.930;2022-08-01T10:19:32;28.80;28.40
65235;DHT22;51820;48.374;10.930;2022-08-01T10:24:34;27.50;34.90
65235;DHT22;51820;48.374;10.930;2022-08-01T10:27:07;28.70;28.40
65235;DHT22;51820;48.374;10.930;2022-08-01T10:29:55;28.90;30.10
65235;DHT22;51820;48.374;10.930;2022-08-01T10:32:35;28.80;28.10
65235;DHT22;51820;48.374;10.930;2022-08-01T10:35:09;32.00;36.30
65235;DHT22;51820;48.374;10.930;2022-08-01T10:40:19;29.00;27.80
65235;DHT22;51820;48.374;10.930;2022-08-01T10:43:14;29.10;28.00
65235;DHT22;51820;48.374;10.930;2022-08-01T10:48:33;29.30;28.80
65235;DHT22;51820;48.374;10.930;2022-08-01T10:51:11;29.30;26.70
65235;DHT22;51820;48.374;10.930;2022-08-01T10:54:10;29.30;27.30
65235;DHT22;51820;48.374;10.930;2022-08-01T10:56:47;29.40;27.00
65235;DHT22;51820;48.374;10.930;2022-08-01T10:59:27;29.40;29.80
65235;DHT22;51820;48.374;10.930;2022-08-01T11:07:02;29.40;32.00
65235;DHT22;51820;48.374;10.930;2022-08-01T11:09:43;29.90;26.60
65235;DHT22;51820;48.374;10.930;2022-08-01T11:18:37;28.20;35.60
65235;DHT22;51820;48.374;10.930;2022-08-01T11:24:12;29.20;26.80
65235;DHT22;51820;48.374;10.930;2022-08-01T11:27:15;29.20;27.10
65235;DHT22;51820;48.374;10.930;2022-08-01T11:30:25;27.20;31.20
65235;DHT22;51820;48.374;10.930;2022-08-01T11:35:40;28.90;33.90
65235;DHT22;51820;48.374;10.930;2022-08-01T11:38:29;27.50;33.60
65235;DHT22;51820;48.374;10.930;2022-08-01T11:41:12;28.50;29.50
65235;DHT22;51820;48.374;10.930;2022-08-01T11:43:57;28.50;29.50
65235;DHT22;51820;48.374;10.930;2022-08-01T11:46:58;28.80;33.20
65235;DHT22;51820;48.374;10.930;2022-08-01T11:49:33;27.90;36.70
65235;DHT22;51820;48.374;10.930;2022-08-01T11:52:06;27.00;35.50
65235;DHT22;51820;48.374;10.930;2022-08-01T11:54:39;28.30;29.60
65235;DHT22;51820;48.374;10.930;2022-08-01T11:57:11;27.00;36.30
65235;DHT22;51820;48.374;10.930;2022-08-01T11:59:51;28.20;29.70
65235;DHT22;51820;48.374;10.930;2022-08-01T12:03:00;28.10;29.70
65235;DHT22;51820;48.374;10.930;2022-08-01T12:05:34;27.60;36.70
65235;DHT22;51820;48.374;10.930;2022-08-01T12:08:11;28.10;31.10
65235;DHT22;51820;48.374;10.930;2022-08-01T12:13:17;27.80;38.40
65235;DHT22;51820;48.374;10.930;2022-08-01T12:15:46;29.60;39.00
65235;DHT22;51820;48.374;10.930;2022-08-01T12:18:22;26.90;35.70
65235;DHT22;51820;48.374;10.930;2022-08-01T12:20:50;26.80;36.10
65235;DHT22;51820;48.374;10.930;2022-08-01T12:23:23;27.90;30.60
65235;DHT22;51820;48.374;10.930;2022-08-01T12:25:52;27.80;38.00
65235;DHT22;51820;48.374;10.930;2022-08-01T12:28:22;27.00;37.30
65235;DHT22;51820;48.374;10.930;2022-08-01T12:30:50;27.90;30.80
65235;DHT22;51820;48.374;10.930;2022-08-01T12:33:19;26.60;37.20
65235;DHT22;51820;48.374;10.930;2022-08-01T12:35:48;27.80;38.60
65235;DHT22;51820;48.374;10.930;2022-08-01T12:38:18;26.80;38.00
65235;DHT22;51820;48.374;10.930;2022-08-01T12:40:47;27.10;36.80
65235;DHT22;51820;48.374;10.930;2022-08-01T12:43:22;26.90;35.60
65235;DHT22;51820;48.374;10.930;2022-08-01T12:45:56;27.20;36.40
65235;DHT22;51820;48.374;10.930;2022-08-01T12:48:26;30.60;39.30
65235;DHT22;51820;48.374;10.930;2022-08-01T12:51:12;27.00;38.10
65235;DHT22;51820;48.374;10.930;2022-08-01T12:53:40;27.70;38.50
65235;DHT22;51820;48.374;10.930;2022-08-01T12:56:10;27.20;38.00
65235;DHT22;51820;48.374;10.930;2022-08-01T12:58:42;28.10;37.80
65235;DHT22;51820;48.374;10.930;2022-08-01T13:08:09;27.00;36.30
65235;DHT22;51820;48.374;10.930;2022-08-01T13:11:15;28.30;29.70
65235;DHT22;51820;48.374;10.930;2022-08-01T13:13:50;28.30;29.00
65235;DHT22;51820;48.374;10.930;2022-08-01T13:16:23;28.40;29.00
65235;DHT22;51820;48.374;10.930;2022-08-01T13:19:14;26.80;34.20
65235;DHT22;51820;48.374;10.930;2022-08-01T13:21:54;27.10;35.30
65235;DHT22;51820;48.374;10.930;2022-08-01T13:24:24;28.50;28.20
65235;DHT22;51820;48.374;10.930;2022-08-01T13:26:55;28.50;28.10
65235;DHT22;51820;48.374;10.930;2022-08-01T13:29:33;28.60;28.40
65235;DHT22;51820;48.374;10.930;2022-08-01T13:32:15;27.60;34.60
65235;DHT22;51820;48.374;10.930;2022-08-01T13:35:01;28.50;28.50
65235;DHT22;51820;48.374;10.930;2022-08-01T13:40:06;27.10;33.40
65235;DHT22;51820;48.374;10.930;2022-08-01T13:45:07;28.20;28.70
65235;DHT22;51820;48.374;10.930;2022-08-01T13:53:01;27.80;36.40
65235;DHT22;51820;48.374;10.930;2022-08-01T13:55:29;26.60;44.60
65235;DHT22;51820;48.374;10.930;2022-08-01T13:58:01;27.70;51.50
65235;DHT22;51820;48.374;10.930;2022-08-01T14:00:31;25.90;47.50
65235;DHT22;51820;48.374;10.930;2022-08-01T14:03:02;25.40;49.30
65235;DHT22;51820;48.374;10.930;2022-08-01T14:13:02;25.60;45.80
65235;DHT22;51820;48.374;10.930;2022-08-01T14:15:43;25.30;45.90
65235;DHT22;51820;48.374;10.930;2022-08-01T14:20:49;25.10;47.70
65235;DHT22;51820;48.374;10.930;2022-08-01T14:23:27;25.00;47.90
65235;DHT22;51820;48.374;10.930;2022-08-01T14:28:37;24.90;49.00
65235;DHT22;51820;48.374;10.930;2022-08-01T14:31:07;24.60;50.20
65235;DHT22;51820;48.374;10.930;2022-08-01T14:33:36;23.40;58.60
65235;DHT22;51820;48.374;10.930;2022-08-01T14:36:04;24.60;51.00
65235;DHT22;51820;48.374;10.930;2022-08-01T14:38:53;23.40;59.20
65235;DHT22;51820;48.374;10.930;2022-08-01T14:41:26;23.50;60.60
65235;DHT22;51820;48.374;10.930;2022-08-01T14:46:28;24.60;51.50
65235;DHT22;51820;48.374;10.930;2022-08-01T14:48:59;24.60;52.50
65235;DHT22;51820;48.374;10.930;2022-08-01T14:51:28;23.50;59.40
65235;DHT22;51820;48.374;10.930;2022-08-01T15:01:28;24.50;49.70
65235;DHT22;51820;48.374;10.930;2022-08-01T15:03:57;25.40;51.40
65235;DHT22;51820;48.374;10.930;2022-08-01T15:16:47;24.40;60.80
65235;DHT22;51820;48.374;10.930;2022-08-01T15:19:15;23.50;61.40
65235;DHT22;51820;48.374;10.930;2022-08-01T15:26:44;23.70;58.70
65235;DHT22;51820;48.374;10.930;2022-08-01T15:31:42;23.60;61.00
65235;DHT22;51820;48.374;10.930;2022-08-01T15:34:11;24.50;55.30
65235;DHT22;51820;48.374;10.930;2022-08-01T15:39:09;23.10;60.70
65235;DHT22;51820;48.374;10.930;2022-08-01T15:41:37;23.30;60.90
65235;DHT22;51820;48.374;10.930;2022-08-01T15:44:06;23.90;62.40
65235;DHT22;51820;48.374;10.930;2022-08-01T15:49:03;23.60;61.30
65235;DHT22;51820;48.374;10.930;2022-08-01T15:51:33;23.40;61.60
65235;DHT22;51820;48.374;10.930;2022-08-01T15:56:38;24.20;61.90
65235;DHT22;51820;48.374;10.930;2022-08-01T16:04:18;23.90;62.20
65235;DHT22;51820;48.374;10.930;2022-08-01T16:06:54;24.70;52.30
65235;DHT22;51820;48.374;10.930;2022-08-01T16:11:53;23.70;62.10
65235;DHT22;51820;48.374;10.930;2022-08-01T16:16:53;24.80;52.60
65235;DHT22;51820;48.374;10.930;2022-08-01T16:21:53;24.20;60.10
65235;DHT22;51820;48.374;10.930;2022-08-01T16:24:25;24.90;48.60
65235;DHT22;51820;48.374;10.930;2022-08-01T16:26:55;24.40;57.90
65235;DHT22;51820;48.374;10.930;2022-08-01T16:29:25;25.70;47.90
65235;DHT22;51820;48.374;10.930;2022-08-01T16:34:45;23.70;55.50
65235;DHT22;51820;48.374;10.930;2022-08-01T16:37:14;24.70;55.90
65235;DHT22;51820;48.374;10.930;2022-08-01T16:39:44;25.00;45.10
65235;DHT22;51820;48.374;10.930;2022-08-01T16:42:13;24.90;46.10
65235;DHT22;51820;48.374;10.930;2022-08-01T16:44:41;23.60;54.20
65235;DHT22;51820;48.374;10.930;2022-08-01T16:52:11;25.00;56.50
65235;DHT22;51820;48.374;10.930;2022-08-01T16:54:39;24.80;57.40
65235;DHT22;51820;48.374;10.930;2022-08-01T16:57:10;25.10;58.50
65235;DHT22;51820;48.374;10.930;2022-08-01T16:59:41;24.90;50.00
65235;DHT22;51820;48.374;10.930;2022-08-01T17:07:12;23.80;60.10
65235;DHT22;51820;48.374;10.930;2022-08-01T17:12:12;24.80;52.20
65235;DHT22;51820;48.374;10.930;2022-08-01T17:22:15;24.00;62.40
65235;DHT22;51820;48.374;10.930;2022-08-01T17:27:16;24.20;53.20
65235;DHT22;51820;48.374;10.930;2022-08-01T17:29:45;23.40;63.30
65235;DHT22;51820;48.374;10.930;2022-08-01T17:37:12;24.50;55.00
65235;DHT22;51820;48.374;10.930;2022-08-01T17:44:39;22.90;64.90
65235;DHT22;51820;48.374;10.930;2022-08-01T17:47:17;22.90;66.10
65235;DHT22;51820;48.374;10.930;2022-08-01T17:50:12;24.30;55.40
65235;DHT22;51820;48.374;10.930;2022-08-01T17:55:09;22.90;64.40
65235;DHT22;51820;48.374;10.930;2022-08-01T18:00:34;24.00;54.90
65235;DHT22;51820;48.374;10.930;2022-08-01T18:05:57;24.30;55.10
65235;DHT22;51820;48.374;10.930;2022-08-01T18:20:11;24.30;53.60
65235;DHT22;51820;48.374;10.930;2022-08-01T18:23:04;24.30;53.50
65235;DHT22;51820;48.374;10.930;2022-08-01T18:46:31;25.80;66.70
65235;DHT22;51820;48.374;10.930;2022-08-01T18:51:27;22.30;64.10
65235;DHT22;51820;48.374;10.930;2022-08-01T18:53:56;22.90;64.10
65235;DHT22;51820;48.374;10.930;2022-08-01T18:58:53;23.70;54.40
65235;DHT22;51820;48.374;10.930;2022-08-01T19:01:22;22.20;64.70
65235;DHT22;51820;48.374;10.930;2022-08-01T19:03:52;23.20;65.10
65235;DHT22;51820;48.374;10.930;2022-08-01T19:16:21;27.40;68.40
65235;DHT22;51820;48.374;10.930;2022-08-01T19:21:21;23.30;64.70
65235;DHT22;51820;48.374;10.930;2022-08-01T19:23:52;23.30;54.40
65235;DHT22;51820;48.374;10.930;2022-08-01T19:26:39;23.30;53.40
65235;DHT22;51820;48.374;10.930;2022-08-01T19:29:16;26.10;67.10
65235;DHT22;51820;48.374;10.930;2022-08-01T19:31:46;23.30;53.10
65235;DHT22;51820;48.374;10.930;2022-08-01T19:34:16;21.50;62.70
65235;DHT22;51820;48.374;10.930;2022-08-01T19:36:48;23.20;53.60
65235;DHT22;51820;48.374;10.930;2022-08-01T19:39:18;22.10;63.70
65235;DHT22;51820;48.374;10.930;2022-08-01T19:41:48;23.30;64.40
65235;DHT22;51820;48.374;10.930;2022-08-01T19:44:19;23.10;55.10
65235;DHT22;51820;48.374;10.930;2022-08-01T19:46:49;23.10;55.60
65235;DHT22;51820;48.374;10.930;2022-08-01T19:49:20;23.10;55.80
65235;DHT22;51820;48.374;10.930;2022-08-01T19:51:51;23.10;56.00
65235;DHT22;51820;48.374;10.930;2022-08-01T19:54:21;22.50;66.30
65235;DHT22;51820;48.374;10.930;2022-08-01T19:56:53;23.00;56.40
65235;DHT22;51820;48.374;10.930;2022-08-01T19:59:22;23.00;56.90
65235;DHT22;51820;48.374;10.930;2022-08-01T20:01:55;22.60;67.40
65235;DHT22;51820;48.374;10.930;2022-08-01T20:04:42;23.00;56.60
65235;DHT22;51820;48.374;10.930;2022-08-01T20:07:44;22.90;56.70
65235;DHT22;51820;48.374;10.930;2022-08-01T20:10:29;22.90;57.20
65235;DHT22;51820;48.374;10.930;2022-08-01T20:13:50;22.90;58.20
65235;DHT22;51820;48.374;10.930;2022-08-01T20:16:46;22.90;57.70
65235;DHT22;51820;48.374;10.930;2022-08-01T20:19:18;22.90;56.30
65235;DHT22;51820;48.374;10.930;2022-08-01T20:22:18;21.60;55.90
65235;DHT22;51820;48.374;10.930;2022-08-01T20:25:12;22.90;57.60
65235;DHT22;51820;48.374;10.930;2022-08-01T20:28:28;22.90;59.10
65235;DHT22;51820;48.374;10.930;2022-08-01T20:31:22;22.80;56.50
65235;DHT22;51820;48.374;10.930;2022-08-01T20:34:21;22.80;58.40
65235;DHT22;51820;48.374;10.930;2022-08-01T20:37:11;22.70;56.50
65235;DHT22;51820;48.374;10.930;2022-08-01T20:40:13;24.40;57.90